createdAt,value
2023-03-24T00:02:13.707Z,96854.19
2023-03-24T00:07:16.308Z,96849.56
2023-03-24T00:12:18.581Z,96841.09
2023-03-24T00:17:25.391Z,96844.94
2023-03-24T00:22:28.437Z,96843.66
2023-03-24T00:27:31.264Z,96836.47
2023-03-24T00:32:33.248Z,96831.84
2023-03-24T00:37:39.436Z,96833.03
2023-03-24T00:42:41.653Z,96832.00
2023-03-24T00:47:44.916Z,96831.03
2023-03-24T00:52:48.980Z,96828.84
2023-03-24T00:57:51.448Z,96824.69
2023-03-24T01:02:57.185Z,96819.59
2023-03-24T01:08:03.135Z,96807.94
2023-03-24T01:13:05.559Z,96795.84
2023-03-24T01:18:09.828Z,96799.72
2023-03-24T01:23:17.508Z,96792.47
2023-03-24T01:28:25.074Z,96794.38
2023-03-24T01:33:27.073Z,96793.63
2023-03-24T01:38:29.207Z,96789.09
2023-03-24T01:43:33.429Z,96787.06
2023-03-24T01:48:35.403Z,96783.81
2023-03-24T01:53:40.567Z,96771.13
2023-03-24T01:58:47.678Z,96765.13
2023-03-24T02:03:59.171Z,96765.63
2023-03-24T02:09:02.709Z,96757.06
2023-03-24T02:14:07.211Z,96753.81
2023-03-24T02:19:44.826Z,96759.59
2023-03-24T02:25:02.029Z,96758.56
2023-03-24T02:30:31.907Z,96758.00
2023-03-24T02:35:48.832Z,96756.75
2023-03-24T02:41:14.844Z,96754.81
2023-03-24T02:46:27.045Z,96754.84
2023-03-24T02:51:45.367Z,96748.41
2023-03-24T02:57:07.345Z,96737.94
2023-03-24T03:02:35.901Z,96735.22
2023-03-24T03:07:38.467Z,96715.84
2023-03-24T03:12:41.304Z,96703.53
2023-03-24T03:17:53.295Z,96692.72
2023-03-24T03:23:07.218Z,96689.56
2023-03-24T03:28:13.005Z,96685.19
2023-03-24T03:33:31.206Z,96681.94
2023-03-24T03:39:03.961Z,96682.38
2023-03-24T03:44:07.277Z,96666.38
2023-03-24T03:49:09.944Z,96656.97
2023-03-24T03:54:14.711Z,96656.19
2023-03-24T03:59:33.987Z,96654.03
2023-03-24T04:04:53.277Z,96655.00
2023-03-24T04:10:31.106Z,96651.81
2023-03-24T04:16:04.131Z,96644.03
2023-03-24T04:21:48.751Z,96652.38
2023-03-24T04:27:01.163Z,96637.19
2023-03-24T04:32:14.616Z,96640.94
2023-03-24T04:37:23.006Z,96636.91
2023-03-24T04:42:52.926Z,96634.41
2023-03-24T04:48:01.296Z,96630.97
2023-03-24T04:53:14.687Z,96627.59
2023-03-24T04:58:19.083Z,96625.69
2023-03-24T05:03:21.263Z,96618.41
2023-03-24T05:08:23.168Z,96602.50
2023-03-24T05:13:25.710Z,96590.59
2023-03-24T05:18:31.372Z,96598.84
2023-03-24T05:23:33.266Z,96596.63
2023-03-24T05:28:34.956Z,96581.81
2023-03-24T05:33:37.212Z,96586.53
2023-03-24T05:38:40.322Z,96580.06
2023-03-24T05:43:42.093Z,96587.72
2023-03-24T05:48:46.967Z,96581.13
2023-03-24T05:53:55.894Z,96564.59
2023-03-24T05:59:06.671Z,96566.50
2023-03-24T06:04:31.280Z,96566.94
2023-03-24T06:09:42.389Z,96545.09
2023-03-24T06:14:46.322Z,96542.72
2023-03-24T06:19:49.540Z,96533.47
2023-03-24T06:24:58.716Z,96531.06
2023-03-24T06:30:00.386Z,96541.53
2023-03-24T06:35:02.714Z,96543.91
2023-03-24T06:40:17.545Z,96546.28
2023-03-24T06:45:29.556Z,96557.31
2023-03-24T06:50:35.448Z,96561.06
2023-03-24T06:55:42.912Z,96559.66
2023-03-24T07:00:50.352Z,96555.38
2023-03-24T07:06:22.937Z,96571.66
2023-03-24T07:11:28.677Z,96579.16
2023-03-24T07:16:33.811Z,96577.91
2023-03-24T07:21:55.441Z,96584.94
2023-03-24T07:27:09.908Z,96583.78
2023-03-24T07:32:12.443Z,96580.78
2023-03-24T07:37:14.133Z,96577.41
2023-03-24T07:42:16.602Z,96584.88
2023-03-24T07:47:45.487Z,96597.09
2023-03-24T07:52:48.653Z,96585.19
2023-03-24T07:57:52.307Z,96595.63
2023-03-24T08:02:54.206Z,96592.78
2023-03-24T08:08:15.326Z,96600.34
2023-03-24T08:13:18.172Z,96590.22
2023-03-24T08:18:21.244Z,96581.66
2023-03-24T08:23:22.853Z,96589.16
2023-03-24T08:28:24.478Z,96590.63
2023-03-24T08:33:26.151Z,96592.94
2023-03-24T08:38:32.636Z,96589.56
2023-03-24T08:43:35.917Z,96587.31
2023-03-24T08:48:40.602Z,96584.16
2023-03-24T08:53:43.076Z,96578.69
2023-03-24T08:58:48.291Z,96583.75
2023-03-24T09:03:50.160Z,96565.34
2023-03-24T09:08:51.803Z,96583.22
2023-03-24T09:13:53.902Z,96594.16
2023-03-24T09:18:55.619Z,96583.28
2023-03-24T09:23:57.205Z,96580.53
2023-03-24T09:28:58.837Z,96566.84
2023-03-24T09:34:03.822Z,96572.50
2023-03-24T09:39:06.202Z,96587.41
2023-03-24T09:44:25.629Z,96587.03
2023-03-24T09:49:36.424Z,96585.34
2023-03-24T09:54:58.802Z,96574.06
2023-03-24T10:00:00.603Z,96578.03
2023-03-24T10:05:02.358Z,96582.31
2023-03-24T10:10:16.333Z,96591.94
2023-03-24T10:15:37.774Z,96619.44
2023-03-24T10:21:07.512Z,96627.72
2023-03-24T10:26:21.178Z,96629.69
2023-03-24T10:31:29.503Z,96618.00
2023-03-24T10:36:32.129Z,96628.09
2023-03-24T10:41:36.423Z,96624.34
2023-03-24T10:46:48.266Z,96634.03
2023-03-24T10:52:01.284Z,96642.91
2023-03-24T10:57:15.372Z,96622.47
2023-03-24T11:02:23.212Z,96633.81
2023-03-24T11:07:35.877Z,96619.25
2023-03-24T11:12:40.648Z,96616.56
2023-03-24T11:17:42.602Z,96606.19
2023-03-24T11:23:15.368Z,96637.97
2023-03-24T11:28:24.002Z,96613.84
2023-03-24T11:33:36.222Z,96606.16
2023-03-24T11:38:39.522Z,96611.53
2023-03-24T11:43:41.192Z,96616.41
2023-03-24T11:48:58.793Z,96607.09
2023-03-24T11:54:05.076Z,96614.13
2023-03-24T11:59:18.539Z,96594.19
2023-03-24T12:04:26.306Z,96594.75
2023-03-24T12:09:33.037Z,96595.13
2023-03-24T12:14:53.265Z,96602.66
2023-03-24T12:20:21.089Z,96602.91
2023-03-24T12:25:53.230Z,96590.84
2023-03-24T12:31:48.991Z,96585.19
2023-03-24T12:36:56.613Z,96585.06
2023-03-24T12:42:03.849Z,96574.03
2023-03-24T12:47:21.918Z,96579.56
2023-03-24T12:52:58.140Z,96571.66
2023-03-24T12:58:41.757Z,96564.75
2023-03-24T13:03:43.329Z,96552.75
2023-03-24T13:08:57.623Z,96564.69
2023-03-24T13:14:03.266Z,96573.13
2023-03-24T13:19:23.570Z,96634.75
2023-03-24T13:24:26.249Z,96638.41
2023-03-24T13:29:38.422Z,96683.84
2023-03-24T13:34:55.884Z,96633.06
2023-03-24T13:40:00.791Z,96655.84
2023-03-24T13:45:06.458Z,96671.97
2023-03-24T13:50:13.374Z,96690.13
2023-03-24T13:55:26.894Z,96698.56
2023-03-24T14:00:29.019Z,96692.53
2023-03-24T14:05:52.920Z,96689.19
2023-03-24T14:10:54.523Z,96678.78
2023-03-24T14:15:56.933Z,96694.78
2023-03-24T14:21:03.794Z,96691.56
2023-03-24T14:26:08.685Z,96690.44
2023-03-24T14:31:15.421Z,96681.25
2023-03-24T14:36:20.916Z,96686.63
2023-03-24T14:41:31.330Z,96681.84
2023-03-24T14:46:44.807Z,96688.44
2023-03-24T14:52:08.220Z,96673.06
2023-03-24T14:57:20.269Z,96670.47
2023-03-24T15:02:28.386Z,96647.88
2023-03-24T15:07:30.023Z,96646.47
2023-03-24T15:12:32.247Z,96652.19
2023-03-24T15:17:34.547Z,96649.19
2023-03-24T15:22:42.804Z,96635.91
2023-03-24T15:27:51.901Z,96632.16
2023-03-24T15:32:54.947Z,96627.38
2023-03-24T15:37:57.295Z,96620.63
2023-03-24T15:43:01.620Z,96608.88
2023-03-24T15:48:16.356Z,96603.44
2023-03-24T15:53:17.901Z,96604.47
2023-03-24T15:58:28.349Z,96610.47
2023-03-24T16:03:31.848Z,96615.63
2023-03-24T16:08:39.097Z,96615.81
2023-03-24T16:13:44.375Z,96631.56
2023-03-24T16:18:48.650Z,96635.56
2023-03-24T16:23:52.067Z,96629.09
2023-03-24T16:28:55.063Z,96633.91
2023-03-24T16:33:58.171Z,96634.00
2023-03-24T16:39:01.682Z,96622.78
2023-03-24T16:44:03.815Z,96642.81
2023-03-24T16:49:07.142Z,96656.22
2023-03-24T16:54:09.299Z,96664.25
2023-03-24T16:59:12.517Z,96674.84
2023-03-24T17:04:20.513Z,96674.63
2023-03-24T17:09:23.009Z,96672.28
2023-03-24T17:14:24.783Z,96673.66
2023-03-24T17:19:27.130Z,96670.06
2023-03-24T17:24:32.739Z,96682.25
2023-03-24T17:29:34.394Z,96683.88
2023-03-24T17:34:37.842Z,96676.84
2023-03-24T17:39:39.567Z,96682.03
2023-03-24T17:44:41.186Z,96700.41
2023-03-24T17:49:42.805Z,96695.59
2023-03-24T17:54:45.924Z,96691.41
2023-03-24T17:59:47.656Z,96699.34
2023-03-24T18:04:49.362Z,96704.53
2023-03-24T18:09:51.604Z,96704.53
2023-03-24T18:14:56.030Z,96704.53
2023-03-24T18:19:59.639Z,96699.13
2023-03-24T18:25:06.419Z,96708.47
2023-03-24T18:30:13.279Z,96721.84
2023-03-24T18:35:17.818Z,96714.06
2023-03-24T18:40:19.705Z,96718.41
2023-03-24T18:45:21.380Z,96733.16
2023-03-24T18:50:23.802Z,96734.13
2023-03-24T18:55:26.760Z,96738.06
2023-03-24T19:00:28.673Z,96746.22
2023-03-24T19:05:32.761Z,96737.84
2023-03-24T19:10:37.911Z,96734.41
2023-03-24T19:15:40.320Z,96741.84
2023-03-24T19:20:42.417Z,96736.56
2023-03-24T19:25:44.219Z,96748.25
2023-03-24T19:30:46.023Z,96754.19
2023-03-24T19:35:49.459Z,96746.03
2023-03-24T19:40:53.843Z,96752.09
2023-03-24T19:45:56.307Z,96743.31
2023-03-24T19:50:58.188Z,96757.25
2023-03-24T19:56:01.264Z,96754.13
2023-03-24T20:01:03.484Z,96762.28
2023-03-24T20:06:09.117Z,96751.03
2023-03-24T20:11:12.225Z,96758.13
2023-03-24T20:16:14.209Z,96766.84
2023-03-24T20:21:22.318Z,96766.09
2023-03-24T20:26:24.233Z,96763.50
2023-03-24T20:31:26.339Z,96752.97
2023-03-24T20:36:28.165Z,96743.84
2023-03-24T20:41:30.448Z,96750.97
2023-03-24T20:46:32.664Z,96739.22
2023-03-24T20:51:34.484Z,96747.16
2023-03-24T20:56:36.730Z,96749.69
2023-03-24T21:01:42.241Z,96749.25
2023-03-24T21:06:44.493Z,96760.88
2023-03-24T21:11:46.308Z,96750.81
2023-03-24T21:16:48.335Z,96742.78
2023-03-24T21:21:50.505Z,96738.44
2023-03-24T21:26:55.537Z,96739.56
2023-03-24T21:31:57.408Z,96746.78
2023-03-24T21:37:01.328Z,96748.00
2023-03-24T21:42:03.292Z,96750.59
2023-03-24T21:47:05.165Z,96749.84
2023-03-24T21:52:08.076Z,96745.66
2023-03-24T21:57:10.106Z,96750.94
2023-03-24T22:02:14.620Z,96745.81
2023-03-24T22:07:22.490Z,96763.16
2023-03-24T22:12:24.312Z,96765.19
2023-03-24T22:17:26.390Z,96768.47
2023-03-24T22:22:28.284Z,96768.72
2023-03-24T22:27:30.822Z,96772.00
2023-03-24T22:32:32.721Z,96777.34
2023-03-24T22:37:35.895Z,96774.13
2023-03-24T22:42:37.738Z,96773.72
2023-03-24T22:47:39.587Z,96771.50
2023-03-24T22:52:41.417Z,96763.72
2023-03-24T22:57:43.237Z,96770.03
2023-03-24T23:02:45.133Z,96765.97
2023-03-24T23:07:47.535Z,96777.50
2023-03-24T23:12:51.971Z,96776.28
2023-03-24T23:17:54.107Z,96782.44
2023-03-24T23:23:00.617Z,96779.72
2023-03-24T23:28:02.475Z,96779.72
2023-03-24T23:33:04.498Z,96779.91
2023-03-24T23:38:06.796Z,96775.47
2023-03-24T23:43:08.696Z,96774.97
2023-03-24T23:48:10.568Z,96781.22
2023-03-24T23:53:12.393Z,96780.34
2023-03-24T23:58:14.540Z,96779.75
